sensor_id;sensor_type;location;lat;lon;timestamp;P1;durP1;ratioP1;P2;durP2;ratioP2
7233;SDS011;3658;47.992;10.158;2024-02-28T00:00:23;2.90;;;2.37;;
7233;SDS011;3658;47.992;10.158;2024-02-28T00:02:50;2.30;;;2.10;;
7233;SDS011;3658;47.992;10.158;2024-02-28T00:05:18;2.50;;;2.30;;
7233;SDS011;3658;47.992;10.158;2024-02-28T00:07:45;2.77;;;2.50;;
7233;SDS011;3658;47.992;10.158;2024-02-28T00:10:12;3.00;;;2.80;;
7233;SDS011;3658;47.992;10.158;2024-02-28T00:12:39;2.93;;;2.60;;
7233;SDS011;3658;47.992;10.158;2024-02-28T00:15:06;2.70;;;2.50;;
7233;SDS011;3658;47.992;10.158;2024-02-28T00:17:37;2.30;;;2.10;;
7233;SDS011;3658;47.992;10.158;2024-02-28T00:20:06;2.47;;;2.17;;
7233;SDS011;3658;47.992;10.158;2024-02-28T00:22:34;2.43;;;2.20;;
7233;SDS011;3658;47.992;10.158;2024-02-28T00:25:01;2.53;;;2.30;;
7233;SDS011;3658;47.992;10.158;2024-02-28T00:27:28;2.70;;;2.33;;
7233;SDS011;3658;47.992;10.158;2024-02-28T00:29:55;2.40;;;2.20;;
7233;SDS011;3658;47.992;10.158;2024-02-28T00:32:22;2.40;;;2.20;;
7233;SDS011;3658;47.992;10.158;2024-02-28T00:34:49;2.20;;;2.00;;
7233;SDS011;3658;47.992;10.158;2024-02-28T00:37:15;2.40;;;2.20;;
7233;SDS011;3658;47.992;10.158;2024-02-28T00:39:44;2.23;;;2.03;;
7233;SDS011;3658;47.992;10.158;2024-02-28T00:42:11;3.10;;;2.07;;
7233;SDS011;3658;47.992;10.158;2024-02-28T00:44:38;2.33;;;2.13;;
7233;SDS011;3658;47.992;10.158;2024-02-28T00:47:07;2.50;;;2.30;;
7233;SDS011;3658;47.992;10.158;2024-02-28T00:49:34;2.50;;;2.30;;
7233;SDS011;3658;47.992;10.158;2024-02-28T00:52:01;2.40;;;2.20;;
7233;SDS011;3658;47.992;10.158;2024-02-28T00:54:27;2.20;;;2.00;;
7233;SDS011;3658;47.992;10.158;2024-02-28T00:56:55;2.13;;;1.97;;
7233;SDS011;3658;47.992;10.158;2024-02-28T00:59:22;2.40;;;2.20;;
7233;SDS011;3658;47.992;10.158;2024-02-28T01:01:49;2.10;;;1.90;;
7233;SDS011;3658;47.992;10.158;2024-02-28T01:04:16;2.40;;;2.20;;
7233;SDS011;3658;47.992;10.158;2024-02-28T01:06:43;2.00;;;1.90;;
7233;SDS011;3658;47.992;10.158;2024-02-28T01:09:10;2.20;;;2.00;;
7233;SDS011;3658;47.992;10.158;2024-02-28T01:11:36;2.20;;;2.00;;
7233;SDS011;3658;47.992;10.158;2024-02-28T01:14:05;2.50;;;2.30;;
7233;SDS011;3658;47.992;10.158;2024-02-28T01:16:31;2.13;;;1.93;;
7233;SDS011;3658;47.992;10.158;2024-02-28T01:18:58;2.67;;;1.90;;
7233;SDS011;3658;47.992;10.158;2024-02-28T01:21:25;2.20;;;1.93;;
7233;SDS011;3658;47.992;10.158;2024-02-28T01:23:52;2.17;;;1.97;;
7233;SDS011;3658;47.992;10.158;2024-02-28T01:26:19;2.53;;;2.33;;
7233;SDS011;3658;47.992;10.158;2024-02-28T01:28:47;1.90;;;1.80;;
7233;SDS011;3658;47.992;10.158;2024-02-28T01:31:15;2.23;;;2.10;;
7233;SDS011;3658;47.992;10.158;2024-02-28T01:33:42;2.30;;;2.00;;
7233;SDS011;3658;47.992;10.158;2024-02-28T01:36:09;2.30;;;2.10;;
7233;SDS011;3658;47.992;10.158;2024-02-28T01:38:38;2.23;;;2.03;;
7233;SDS011;3658;47.992;10.158;2024-02-28T01:41:04;1.97;;;1.80;;
7233;SDS011;3658;47.992;10.158;2024-02-28T01:43:31;1.93;;;1.83;;
7233;SDS011;3658;47.992;10.158;2024-02-28T01:45:58;2.17;;;1.97;;
7233;SDS011;3658;47.992;10.158;2024-02-28T01:48:28;2.30;;;2.10;;
7233;SDS011;3658;47.992;10.158;2024-02-28T01:50:55;2.30;;;2.10;;
7233;SDS011;3658;47.992;10.158;2024-02-28T01:53:22;2.23;;;2.03;;
7233;SDS011;3658;47.992;10.158;2024-02-28T01:55:49;1.87;;;1.73;;
7233;SDS011;3658;47.992;10.158;2024-02-28T01:58:17;2.00;;;1.90;;
7233;SDS011;3658;47.992;10.158;2024-02-28T02:00:43;2.20;;;2.00;;
7233;SDS011;3658;47.992;10.158;2024-02-28T02:03:12;2.10;;;1.90;;
7233;SDS011;3658;47.992;10.158;2024-02-28T02:05:40;2.30;;;2.10;;
7233;SDS011;3658;47.992;10.158;2024-02-28T02:08:07;1.80;;;1.70;;
7233;SDS011;3658;47.992;10.158;2024-02-28T02:10:35;2.30;;;2.00;;
7233;SDS011;3658;47.992;10.158;2024-02-28T02:13:04;2.00;;;1.90;;
7233;SDS011;3658;47.992;10.158;2024-02-28T02:15:31;2.00;;;1.80;;
7233;SDS011;3658;47.992;10.158;2024-02-28T02:17:58;2.00;;;1.90;;
7233;SDS011;3658;47.992;10.158;2024-02-28T02:20:25;2.27;;;2.07;;
7233;SDS011;3658;47.992;10.158;2024-02-28T02:22:57;1.73;;;1.63;;
7233;SDS011;3658;47.992;10.158;2024-02-28T02:25:24;2.17;;;1.97;;
7233;SDS011;3658;47.992;10.158;2024-02-28T02:27:51;2.20;;;1.90;;
7233;SDS011;3658;47.992;10.158;2024-02-28T02:30:18;1.90;;;1.80;;
7233;SDS011;3658;47.992;10.158;2024-02-28T02:32:44;1.97;;;1.87;;
7233;SDS011;3658;47.992;10.158;2024-02-28T02:35:11;1.53;;;1.43;;
7233;SDS011;3658;47.992;10.158;2024-02-28T02:37:40;1.90;;;1.80;;
7233;SDS011;3658;47.992;10.158;2024-02-28T02:40:12;2.10;;;1.90;;
7233;SDS011;3658;47.992;10.158;2024-02-28T02:42:39;1.67;;;1.57;;
7233;SDS011;3658;47.992;10.158;2024-02-28T02:45:06;1.70;;;1.60;;
7233;SDS011;3658;47.992;10.158;2024-02-28T02:47:33;2.10;;;1.90;;
7233;SDS011;3658;47.992;10.158;2024-02-28T02:50:00;2.10;;;1.90;;
7233;SDS011;3658;47.992;10.158;2024-02-28T02:52:27;1.50;;;1.40;;
7233;SDS011;3658;47.992;10.158;2024-02-28T02:54:53;2.20;;;2.10;;
7233;SDS011;3658;47.992;10.158;2024-02-28T02:57:21;2.20;;;2.00;;
7233;SDS011;3658;47.992;10.158;2024-02-28T02:59:48;1.70;;;1.60;;
7233;SDS011;3658;47.992;10.158;2024-02-28T03:02:15;1.70;;;1.60;;
7233;SDS011;3658;47.992;10.158;2024-02-28T03:04:42;1.60;;;1.50;;
7233;SDS011;3658;47.992;10.158;2024-02-28T03:07:08;2.47;;;1.90;;
7233;SDS011;3658;47.992;10.158;2024-02-28T03:09:35;1.90;;;1.80;;
7233;SDS011;3658;47.992;10.158;2024-02-28T03:12:02;1.80;;;1.70;;
7233;SDS011;3658;47.992;10.158;2024-02-28T03:14:30;1.80;;;1.70;;
7233;SDS011;3658;47.992;10.158;2024-02-28T03:16:57;2.10;;;1.97;;
7233;SDS011;3658;47.992;10.158;2024-02-28T03:19:24;2.20;;;2.00;;
7233;SDS011;3658;47.992;10.158;2024-02-28T03:21:50;1.87;;;1.77;;
7233;SDS011;3658;47.992;10.158;2024-02-28T03:24:17;2.03;;;1.77;;
7233;SDS011;3658;47.992;10.158;2024-02-28T03:26:44;1.77;;;1.67;;
7233;SDS011;3658;47.992;10.158;2024-02-28T03:29:10;1.97;;;1.73;;
7233;SDS011;3658;47.992;10.158;2024-02-28T03:31:38;1.70;;;1.60;;
7233;SDS011;3658;47.992;10.158;2024-02-28T03:34:05;1.70;;;1.60;;
7233;SDS011;3658;47.992;10.158;2024-02-28T03:36:32;1.90;;;1.80;;
7233;SDS011;3658;47.992;10.158;2024-02-28T03:38:59;1.90;;;1.80;;
7233;SDS011;3658;47.992;10.158;2024-02-28T03:41:26;1.70;;;1.60;;
7233;SDS011;3658;47.992;10.158;2024-02-28T03:43:53;1.90;;;1.80;;
7233;SDS011;3658;47.992;10.158;2024-02-28T03:46:19;1.80;;;1.70;;
7233;SDS011;3658;47.992;10.158;2024-02-28T03:48:48;2.07;;;1.87;;
7233;SDS011;3658;47.992;10.158;2024-02-28T03:51:15;1.90;;;1.70;;
7233;SDS011;3658;47.992;10.158;2024-02-28T03:53:42;1.97;;;1.77;;
7233;SDS011;3658;47.992;10.158;2024-02-28T03:56:08;1.80;;;1.70;;
7233;SDS011;3658;47.992;10.158;2024-02-28T03:58:36;1.70;;;1.60;;
7233;SDS011;3658;47.992;10.158;2024-02-28T04:01:03;2.13;;;1.93;;
7233;SDS011;3658;47.992;10.158;2024-02-28T04:03:30;1.80;;;1.70;;
7233;SDS011;3658;47.992;10.158;2024-02-28T04:05:58;2.00;;;1.80;;
7233;SDS011;3658;47.992;10.158;2024-02-28T04:08:25;2.00;;;1.90;;
7233;SDS011;3658;47.992;10.158;2024-02-28T04:10:51;2.03;;;1.90;;
7233;SDS011;3658;47.992;10.158;2024-02-28T04:13:18;1.80;;;1.70;;
7233;SDS011;3658;47.992;10.158;2024-02-28T04:15:45;2.23;;;1.80;;
7233;SDS011;3658;47.992;10.158;2024-02-28T04:18:12;2.03;;;1.80;;
7233;SDS011;3658;47.992;10.158;2024-02-28T04:20:38;2.10;;;1.90;;
7233;SDS011;3658;47.992;10.158;2024-02-28T04:23:06;2.00;;;1.73;;
7233;SDS011;3658;47.992;10.158;2024-02-28T04:25:33;1.87;;;1.63;;
7233;SDS011;3658;47.992;10.158;2024-02-28T04:28:00;1.60;;;1.50;;
7233;SDS011;3658;47.992;10.158;2024-02-28T04:30:27;2.00;;;1.80;;
7233;SDS011;3658;47.992;10.158;2024-02-28T04:32:54;1.63;;;1.53;;
7233;SDS011;3658;47.992;10.158;2024-02-28T04:35:21;1.70;;;1.60;;
7233;SDS011;3658;47.992;10.158;2024-02-28T04:37:48;1.87;;;1.70;;
7233;SDS011;3658;47.992;10.158;2024-02-28T04:40:16;1.70;;;1.60;;
7233;SDS011;3658;47.992;10.158;2024-02-28T04:42:43;1.70;;;1.60;;
7233;SDS011;3658;47.992;10.158;2024-02-28T04:45:10;2.10;;;1.90;;
7233;SDS011;3658;47.992;10.158;2024-02-28T04:47:37;1.70;;;1.60;;
7233;SDS011;3658;47.992;10.158;2024-02-28T04:50:04;1.87;;;1.77;;
7233;SDS011;3658;47.992;10.158;2024-02-28T04:52:31;1.70;;;1.60;;
7233;SDS011;3658;47.992;10.158;2024-02-28T04:54:58;1.77;;;1.67;;
7233;SDS011;3658;47.992;10.158;2024-02-28T04:57:26;1.67;;;1.57;;
7233;SDS011;3658;47.992;10.158;2024-02-28T04:59:53;1.63;;;1.53;;
7233;SDS011;3658;47.992;10.158;2024-02-28T05:02:20;1.80;;;1.70;;
7233;SDS011;3658;47.992;10.158;2024-02-28T05:04:47;1.90;;;1.80;;
7233;SDS011;3658;47.992;10.158;2024-02-28T05:07:14;1.67;;;1.57;;
7233;SDS011;3658;47.992;10.158;2024-02-28T05:09:40;1.80;;;1.70;;
7233;SDS011;3658;47.992;10.158;2024-02-28T05:12:07;2.20;;;2.00;;
7233;SDS011;3658;47.992;10.158;2024-02-28T05:14:35;2.07;;;1.87;;
7233;SDS011;3658;47.992;10.158;2024-02-28T05:17:02;1.70;;;1.60;;
7233;SDS011;3658;47.992;10.158;2024-02-28T05:19:29;1.70;;;1.60;;
7233;SDS011;3658;47.992;10.158;2024-02-28T05:21:56;1.90;;;1.80;;
7233;SDS011;3658;47.992;10.158;2024-02-28T05:24:23;1.70;;;1.60;;
7233;SDS011;3658;47.992;10.158;2024-02-28T05:26:49;1.83;;;1.73;;
7233;SDS011;3658;47.992;10.158;2024-02-28T05:29:16;1.70;;;1.60;;
7233;SDS011;3658;47.992;10.158;2024-02-28T05:31:44;1.70;;;1.60;;
7233;SDS011;3658;47.992;10.158;2024-02-28T05:34:11;1.90;;;1.80;;
7233;SDS011;3658;47.992;10.158;2024-02-28T05:36:37;1.73;;;1.63;;
7233;SDS011;3658;47.992;10.158;2024-02-28T05:39:06;1.70;;;1.60;;
7233;SDS011;3658;47.992;10.158;2024-02-28T05:41:33;2.10;;;1.90;;
7233;SDS011;3658;47.992;10.158;2024-02-28T05:44:00;1.80;;;1.70;;
7233;SDS011;3658;47.992;10.158;2024-02-28T05:46:27;1.80;;;1.70;;
7233;SDS011;3658;47.992;10.158;2024-02-28T05:48:55;1.70;;;1.60;;
7233;SDS011;3658;47.992;10.158;2024-02-28T05:51:21;2.00;;;1.73;;
7233;SDS011;3658;47.992;10.158;2024-02-28T05:53:48;2.00;;;1.80;;
7233;SDS011;3658;47.992;10.158;2024-02-28T05:56:16;1.70;;;1.60;;
7233;SDS011;3658;47.992;10.158;2024-02-28T05:58:45;2.23;;;2.03;;
7233;SDS011;3658;47.992;10.158;2024-02-28T06:01:13;1.83;;;1.73;;
7233;SDS011;3658;47.992;10.158;2024-02-28T06:03:42;1.90;;;1.70;;
7233;SDS011;3658;47.992;10.158;2024-02-28T06:06:12;1.53;;;1.43;;
7233;SDS011;3658;47.992;10.158;2024-02-28T06:08:39;1.80;;;1.70;;
7233;SDS011;3658;47.992;10.158;2024-02-28T06:11:06;1.70;;;1.60;;
7233;SDS011;3658;47.992;10.158;2024-02-28T06:13:33;1.90;;;1.80;;
7233;SDS011;3658;47.992;10.158;2024-02-28T06:16:00;2.07;;;1.87;;
7233;SDS011;3658;47.992;10.158;2024-02-28T06:18:27;2.07;;;1.93;;
7233;SDS011;3658;47.992;10.158;2024-02-28T06:20:53;2.00;;;1.90;;
7233;SDS011;3658;47.992;10.158;2024-02-28T06:23:22;1.70;;;1.60;;
7233;SDS011;3658;47.992;10.158;2024-02-28T06:25:49;1.80;;;1.70;;
7233;SDS011;3658;47.992;10.158;2024-02-28T06:28:15;1.90;;;1.80;;
7233;SDS011;3658;47.992;10.158;2024-02-28T06:30:42;1.80;;;1.70;;
7233;SDS011;3658;47.992;10.158;2024-02-28T06:33:10;1.80;;;1.70;;
7233;SDS011;3658;47.992;10.158;2024-02-28T06:35:36;1.70;;;1.60;;
7233;SDS011;3658;47.992;10.158;2024-02-28T06:38:03;1.60;;;1.50;;
7233;SDS011;3658;47.992;10.158;2024-02-28T06:40:31;1.80;;;1.70;;
7233;SDS011;3658;47.992;10.158;2024-02-28T06:42:58;2.10;;;1.77;;
7233;SDS011;3658;47.992;10.158;2024-02-28T06:45:24;1.80;;;1.70;;
7233;SDS011;3658;47.992;10.158;2024-02-28T06:47:51;1.77;;;1.67;;
7233;SDS011;3658;47.992;10.158;2024-02-28T06:50:18;2.13;;;1.93;;
7233;SDS011;3658;47.992;10.158;2024-02-28T06:52:44;1.87;;;1.70;;
7233;SDS011;3658;47.992;10.158;2024-02-28T06:55:11;1.90;;;1.80;;
7233;SDS011;3658;47.992;10.158;2024-02-28T06:57:41;1.90;;;1.80;;
7233;SDS011;3658;47.992;10.158;2024-02-28T07:00:08;2.30;;;1.80;;
7233;SDS011;3658;47.992;10.158;2024-02-28T07:02:37;2.03;;;1.83;;
7233;SDS011;3658;47.992;10.158;2024-02-28T07:05:04;1.97;;;1.77;;
7233;SDS011;3658;47.992;10.158;2024-02-28T07:07:31;2.00;;;1.80;;
7233;SDS011;3658;47.992;10.158;2024-02-28T07:09:59;1.90;;;1.70;;
7233;SDS011;3658;47.992;10.158;2024-02-28T07:12:25;1.87;;;1.70;;
7233;SDS011;3658;47.992;10.158;2024-02-28T07:14:53;2.00;;;1.80;;
7233;SDS011;3658;47.992;10.158;2024-02-28T07:17:21;2.00;;;1.90;;
7233;SDS011;3658;47.992;10.158;2024-02-28T07:19:48;2.30;;;2.10;;
7233;SDS011;3658;47.992;10.158;2024-02-28T07:22:15;5.23;;;3.40;;
7233;SDS011;3658;47.992;10.158;2024-02-28T07:24:41;5.77;;;3.83;;
7233;SDS011;3658;47.992;10.158;2024-02-28T07:27:08;6.20;;;3.83;;
7233;SDS011;3658;47.992;10.158;2024-02-28T07:29:36;5.80;;;4.43;;
7233;SDS011;3658;47.992;10.158;2024-02-28T07:32:04;4.63;;;4.00;;
7233;SDS011;3658;47.992;10.158;2024-02-28T07:34:31;7.57;;;4.70;;
7233;SDS011;3658;47.992;10.158;2024-02-28T07:36:58;6.80;;;4.90;;
7233;SDS011;3658;47.992;10.158;2024-02-28T07:39:25;5.60;;;4.03;;
7233;SDS011;3658;47.992;10.158;2024-02-28T07:41:52;6.10;;;4.20;;
7233;SDS011;3658;47.992;10.158;2024-02-28T07:44:19;7.80;;;4.57;;
7233;SDS011;3658;47.992;10.158;2024-02-28T07:46:45;6.87;;;4.37;;
7233;SDS011;3658;47.992;10.158;2024-02-28T07:49:14;7.60;;;5.07;;
7233;SDS011;3658;47.992;10.158;2024-02-28T07:51:41;7.67;;;4.83;;
7233;SDS011;3658;47.992;10.158;2024-02-28T07:54:07;5.73;;;4.67;;
7233;SDS011;3658;47.992;10.158;2024-02-28T07:56:34;6.33;;;4.90;;
7233;SDS011;3658;47.992;10.158;2024-02-28T07:59:01;5.77;;;4.40;;
7233;SDS011;3658;47.992;10.158;2024-02-28T08:01:28;7.40;;;5.47;;
7233;SDS011;3658;47.992;10.158;2024-02-28T08:03:55;5.00;;;4.50;;
7233;SDS011;3658;47.992;10.158;2024-02-28T08:06:23;6.50;;;4.77;;
7233;SDS011;3658;47.992;10.158;2024-02-28T08:08:50;6.17;;;4.87;;
7233;SDS011;3658;47.992;10.158;2024-02-28T08:11:17;7.07;;;4.90;;
7233;SDS011;3658;47.992;10.158;2024-02-28T08:13:44;5.93;;;4.63;;
7233;SDS011;3658;47.992;10.158;2024-02-28T08:16:11;6.27;;;5.13;;
7233;SDS011;3658;47.992;10.158;2024-02-28T08:18:37;5.20;;;4.60;;
7233;SDS011;3658;47.992;10.158;2024-02-28T08:21:04;7.17;;;5.43;;
7233;SDS011;3658;47.992;10.158;2024-02-28T08:23:32;5.97;;;5.00;;
7233;SDS011;3658;47.992;10.158;2024-02-28T08:25:59;5.17;;;4.50;;
7233;SDS011;3658;47.992;10.158;2024-02-28T08:28:26;6.43;;;5.43;;
7233;SDS011;3658;47.992;10.158;2024-02-28T08:30:52;5.60;;;4.80;;
7233;SDS011;3658;47.992;10.158;2024-02-28T08:33:19;6.37;;;4.97;;
7233;SDS011;3658;47.992;10.158;2024-02-28T08:35:46;6.17;;;5.07;;
7233;SDS011;3658;47.992;10.158;2024-02-28T08:38:15;6.53;;;4.80;;
7233;SDS011;3658;47.992;10.158;2024-02-28T08:40:43;5.63;;;4.97;;
7233;SDS011;3658;47.992;10.158;2024-02-28T08:43:10;8.87;;;5.27;;
7233;SDS011;3658;47.992;10.158;2024-02-28T08:45:37;5.40;;;4.90;;
7233;SDS011;3658;47.992;10.158;2024-02-28T08:48:04;5.83;;;4.77;;
7233;SDS011;3658;47.992;10.158;2024-02-28T08:50:31;5.87;;;5.00;;
7233;SDS011;3658;47.992;10.158;2024-02-28T08:52:58;5.40;;;4.67;;
7233;SDS011;3658;47.992;10.158;2024-02-28T08:55:24;6.33;;;4.83;;
7233;SDS011;3658;47.992;10.158;2024-02-28T08:57:52;5.90;;;5.10;;
7233;SDS011;3658;47.992;10.158;2024-02-28T09:00:19;5.83;;;4.80;;
7233;SDS011;3658;47.992;10.158;2024-02-28T09:02:46;5.63;;;4.90;;
7233;SDS011;3658;47.992;10.158;2024-02-28T09:05:13;6.47;;;5.20;;
7233;SDS011;3658;47.992;10.158;2024-02-28T09:07:40;6.83;;;5.27;;
7233;SDS011;3658;47.992;10.158;2024-02-28T09:10:07;5.90;;;5.30;;
7233;SDS011;3658;47.992;10.158;2024-02-28T09:12:34;8.43;;;5.37;;
7233;SDS011;3658;47.992;10.158;2024-02-28T09:15:03;6.27;;;5.40;;
7233;SDS011;3658;47.992;10.158;2024-02-28T09:17:30;6.50;;;5.03;;
7233;SDS011;3658;47.992;10.158;2024-02-28T09:19:57;5.20;;;4.70;;
7233;SDS011;3658;47.992;10.158;2024-02-28T09:22:26;6.07;;;5.07;;
7233;SDS011;3658;47.992;10.158;2024-02-28T09:24:52;7.43;;;5.57;;
7233;SDS011;3658;47.992;10.158;2024-02-28T09:27:19;6.70;;;5.43;;
7233;SDS011;3658;47.992;10.158;2024-02-28T09:29:46;6.40;;;4.83;;
7233;SDS011;3658;47.992;10.158;2024-02-28T09:32:14;6.40;;;5.80;;
7233;SDS011;3658;47.992;10.158;2024-02-28T09:34:40;6.53;;;5.83;;
7233;SDS011;3658;47.992;10.158;2024-02-28T09:37:07;6.43;;;5.17;;
7233;SDS011;3658;47.992;10.158;2024-02-28T09:39:34;9.10;;;5.30;;
7233;SDS011;3658;47.992;10.158;2024-02-28T09:42:03;6.37;;;5.43;;
7233;SDS011;3658;47.992;10.158;2024-02-28T09:44:31;6.27;;;5.43;;
7233;SDS011;3658;47.992;10.158;2024-02-28T09:46:59;6.53;;;5.37;;
7233;SDS011;3658;47.992;10.158;2024-02-28T09:49:28;8.23;;;5.77;;
7233;SDS011;3658;47.992;10.158;2024-02-28T09:51:57;7.70;;;5.93;;
7233;SDS011;3658;47.992;10.158;2024-02-28T09:54:25;6.67;;;4.97;;
7233;SDS011;3658;47.992;10.158;2024-02-28T09:56:51;5.73;;;5.13;;
7233;SDS011;3658;47.992;10.158;2024-02-28T09:59:18;9.63;;;5.50;;
7233;SDS011;3658;47.992;10.158;2024-02-28T10:01:47;7.30;;;6.00;;
7233;SDS011;3658;47.992;10.158;2024-02-28T10:04:18;7.57;;;6.03;;
7233;SDS011;3658;47.992;10.158;2024-02-28T10:06:47;6.13;;;5.47;;
7233;SDS011;3658;47.992;10.158;2024-02-28T10:09:15;6.57;;;5.53;;
7233;SDS011;3658;47.992;10.158;2024-02-28T10:11:42;6.57;;;5.53;;
7233;SDS011;3658;47.992;10.158;2024-02-28T10:14:09;6.17;;;5.57;;
7233;SDS011;3658;47.992;10.158;2024-02-28T10:16:36;6.13;;;5.53;;
7233;SDS011;3658;47.992;10.158;2024-02-28T10:19:04;7.03;;;5.93;;
7233;SDS011;3658;47.992;10.158;2024-02-28T10:21:31;7.43;;;5.47;;
7233;SDS011;3658;47.992;10.158;2024-02-28T10:23:59;6.80;;;6.10;;
7233;SDS011;3658;47.992;10.158;2024-02-28T10:26:26;6.93;;;5.70;;
7233;SDS011;3658;47.992;10.158;2024-02-28T10:28:55;6.50;;;5.73;;
7233;SDS011;3658;47.992;10.158;2024-02-28T10:31:21;6.97;;;5.57;;
7233;SDS011;3658;47.992;10.158;2024-02-28T10:33:48;7.77;;;6.17;;
7233;SDS011;3658;47.992;10.158;2024-02-28T10:36:16;5.77;;;5.17;;
7233;SDS011;3658;47.992;10.158;2024-02-28T10:38:43;7.60;;;6.67;;
7233;SDS011;3658;47.992;10.158;2024-02-28T10:41:11;7.67;;;6.10;;
7233;SDS011;3658;47.992;10.158;2024-02-28T10:43:39;7.00;;;6.20;;
7233;SDS011;3658;47.992;10.158;2024-02-28T10:46:07;7.40;;;6.60;;
7233;SDS011;3658;47.992;10.158;2024-02-28T10:48:35;6.90;;;5.80;;
7233;SDS011;3658;47.992;10.158;2024-02-28T10:51:02;6.73;;;5.97;;
7233;SDS011;3658;47.992;10.158;2024-02-28T10:53:32;6.50;;;5.67;;
7233;SDS011;3658;47.992;10.158;2024-02-28T10:56:03;6.83;;;6.13;;
7233;SDS011;3658;47.992;10.158;2024-02-28T10:58:34;6.43;;;5.33;;
7233;SDS011;3658;47.992;10.158;2024-02-28T11:01:03;6.87;;;5.67;;
7233;SDS011;3658;47.992;10.158;2024-02-28T11:03:30;6.07;;;5.40;;
7233;SDS011;3658;47.992;10.158;2024-02-28T11:05:57;7.37;;;6.37;;
7233;SDS011;3658;47.992;10.158;2024-02-28T11:08:25;6.70;;;6.00;;
7233;SDS011;3658;47.992;10.158;2024-02-28T11:10:54;5.60;;;5.00;;
7233;SDS011;3658;47.992;10.158;2024-02-28T11:13:22;6.10;;;5.50;;
7233;SDS011;3658;47.992;10.158;2024-02-28T11:15:50;6.40;;;5.57;;
7233;SDS011;3658;47.992;10.158;2024-02-28T11:18:20;8.37;;;5.77;;
7233;SDS011;3658;47.992;10.158;2024-02-28T11:20:47;8.90;;;5.53;;
7233;SDS011;3658;47.992;10.158;2024-02-28T11:23:16;7.30;;;5.53;;
7233;SDS011;3658;47.992;10.158;2024-02-28T11:25:44;8.20;;;6.00;;
7233;SDS011;3658;47.992;10.158;2024-02-28T11:28:10;6.87;;;6.03;;
7233;SDS011;3658;47.992;10.158;2024-02-28T11:30:37;6.67;;;5.67;;
7233;SDS011;3658;47.992;10.158;2024-02-28T11:33:05;6.97;;;5.67;;
7233;SDS011;3658;47.992;10.158;2024-02-28T11:35:34;8.83;;;5.50;;
7233;SDS011;3658;47.992;10.158;2024-02-28T11:38:00;6.73;;;5.70;;
7233;SDS011;3658;47.992;10.158;2024-02-28T11:40:27;7.63;;;6.10;;
7233;SDS011;3658;47.992;10.158;2024-02-28T11:42:54;5.97;;;5.30;;
7233;SDS011;3658;47.992;10.158;2024-02-28T11:45:23;6.30;;;5.20;;
7233;SDS011;3658;47.992;10.158;2024-02-28T11:47:50;6.37;;;5.33;;
7233;SDS011;3658;47.992;10.158;2024-02-28T11:50:18;7.40;;;5.87;;
7233;SDS011;3658;47.992;10.158;2024-02-28T11:52:45;8.93;;;6.33;;
7233;SDS011;3658;47.992;10.158;2024-02-28T11:55:12;7.60;;;6.53;;
7233;SDS011;3658;47.992;10.158;2024-02-28T11:57:39;6.53;;;5.47;;
7233;SDS011;3658;47.992;10.158;2024-02-28T12:00:06;10.13;;;5.90;;
7233;SDS011;3658;47.992;10.158;2024-02-28T12:02:37;8.33;;;6.13;;
7233;SDS011;3658;47.992;10.158;2024-02-28T12:05:04;9.20;;;5.67;;
7233;SDS011;3658;47.992;10.158;2024-02-28T12:07:33;11.63;;;5.97;;
7233;SDS011;3658;47.992;10.158;2024-02-28T12:10:00;7.27;;;5.30;;
7233;SDS011;3658;47.992;10.158;2024-02-28T12:12:27;11.60;;;5.53;;
7233;SDS011;3658;47.992;10.158;2024-02-28T12:14:57;6.33;;;5.30;;
7233;SDS011;3658;47.992;10.158;2024-02-28T12:17:24;7.10;;;5.83;;
7233;SDS011;3658;47.992;10.158;2024-02-28T12:19:51;7.50;;;5.67;;
7233;SDS011;3658;47.992;10.158;2024-02-28T12:22:18;9.60;;;5.67;;
7233;SDS011;3658;47.992;10.158;2024-02-28T12:24:45;6.60;;;5.90;;
7233;SDS011;3658;47.992;10.158;2024-02-28T12:27:12;7.37;;;6.03;;
7233;SDS011;3658;47.992;10.158;2024-02-28T12:29:39;10.33;;;7.00;;
7233;SDS011;3658;47.992;10.158;2024-02-28T12:32:06;9.07;;;7.17;;
7233;SDS011;3658;47.992;10.158;2024-02-28T12:34:33;9.37;;;6.50;;
7233;SDS011;3658;47.992;10.158;2024-02-28T12:37:00;11.00;;;6.73;;
7233;SDS011;3658;47.992;10.158;2024-02-28T12:39:29;8.40;;;6.80;;
7233;SDS011;3658;47.992;10.158;2024-02-28T12:41:57;9.60;;;5.90;;
7233;SDS011;3658;47.992;10.158;2024-02-28T12:44:24;7.33;;;5.30;;
7233;SDS011;3658;47.992;10.158;2024-02-28T12:46:51;6.50;;;5.77;;
7233;SDS011;3658;47.992;10.158;2024-02-28T12:49:18;7.30;;;5.50;;
7233;SDS011;3658;47.992;10.158;2024-02-28T12:51:45;6.13;;;5.40;;
7233;SDS011;3658;47.992;10.158;2024-02-28T12:54:14;8.07;;;5.43;;
7233;SDS011;3658;47.992;10.158;2024-02-28T12:56:41;6.23;;;5.30;;
7233;SDS011;3658;47.992;10.158;2024-02-28T12:59:10;8.07;;;5.60;;
7233;SDS011;3658;47.992;10.158;2024-02-28T13:01:37;8.60;;;5.50;;
7233;SDS011;3658;47.992;10.158;2024-02-28T13:04:04;6.20;;;4.90;;
7233;SDS011;3658;47.992;10.158;2024-02-28T13:06:31;5.63;;;4.77;;
7233;SDS011;3658;47.992;10.158;2024-02-28T13:08:58;5.33;;;4.83;;
7233;SDS011;3658;47.992;10.158;2024-02-28T13:11:25;5.33;;;4.57;;
7233;SDS011;3658;47.992;10.158;2024-02-28T13:13:52;5.67;;;4.83;;
7233;SDS011;3658;47.992;10.158;2024-02-28T13:16:20;5.53;;;5.03;;
7233;SDS011;3658;47.992;10.158;2024-02-28T13:18:47;5.50;;;4.50;;
7233;SDS011;3658;47.992;10.158;2024-02-28T13:21:14;6.07;;;4.93;;
7233;SDS011;3658;47.992;10.158;2024-02-28T13:23:41;7.27;;;4.50;;
7233;SDS011;3658;47.992;10.158;2024-02-28T13:26:08;5.13;;;4.57;;
7233;SDS011;3658;47.992;10.158;2024-02-28T13:28:42;5.50;;;5.00;;
7233;SDS011;3658;47.992;10.158;2024-02-28T13:31:09;5.10;;;4.60;;
7233;SDS011;3658;47.992;10.158;2024-02-28T13:33:37;5.17;;;4.67;;
7233;SDS011;3658;47.992;10.158;2024-02-28T13:36:06;5.50;;;4.90;;
7233;SDS011;3658;47.992;10.158;2024-02-28T13:38:33;5.50;;;4.47;;
7233;SDS011;3658;47.992;10.158;2024-02-28T13:41:00;5.87;;;4.47;;
7233;SDS011;3658;47.992;10.158;2024-02-28T13:43:27;19.03;;;13.87;;
7233;SDS011;3658;47.992;10.158;2024-02-28T13:45:53;17.87;;;13.20;;
7233;SDS011;3658;47.992;10.158;2024-02-28T13:48:25;17.53;;;12.00;;
7233;SDS011;3658;47.992;10.158;2024-02-28T13:50:55;14.20;;;10.83;;
7233;SDS011;3658;47.992;10.158;2024-02-28T13:53:22;12.80;;;10.00;;
7233;SDS011;3658;47.992;10.158;2024-02-28T13:55:49;13.10;;;9.17;;
7233;SDS011;3658;47.992;10.158;2024-02-28T13:58:17;13.77;;;9.43;;
7233;SDS011;3658;47.992;10.158;2024-02-28T14:00:44;9.93;;;8.80;;
7233;SDS011;3658;47.992;10.158;2024-02-28T14:03:12;10.50;;;8.03;;
7233;SDS011;3658;47.992;10.158;2024-02-28T14:05:39;13.30;;;8.13;;
7233;SDS011;3658;47.992;10.158;2024-02-28T14:08:07;10.90;;;7.70;;
7233;SDS011;3658;47.992;10.158;2024-02-28T14:10:36;9.97;;;7.27;;
7233;SDS011;3658;47.992;10.158;2024-02-28T14:13:04;9.97;;;7.30;;
7233;SDS011;3658;47.992;10.158;2024-02-28T14:15:31;11.27;;;7.27;;
7233;SDS011;3658;47.992;10.158;2024-02-28T14:17:58;8.13;;;6.83;;
7233;SDS011;3658;47.992;10.158;2024-02-28T14:20:25;9.23;;;7.20;;
7233;SDS011;3658;47.992;10.158;2024-02-28T14:22:52;9.00;;;7.03;;
7233;SDS011;3658;47.992;10.158;2024-02-28T14:25:20;8.03;;;6.50;;
7233;SDS011;3658;47.992;10.158;2024-02-28T14:27:48;8.53;;;6.37;;
7233;SDS011;3658;47.992;10.158;2024-02-28T14:30:15;9.53;;;6.17;;
7233;SDS011;3658;47.992;10.158;2024-02-28T14:32:42;7.53;;;6.10;;
7233;SDS011;3658;47.992;10.158;2024-02-28T14:35:09;6.83;;;5.77;;
7233;SDS011;3658;47.992;10.158;2024-02-28T14:37:37;7.07;;;5.77;;
7233;SDS011;3658;47.992;10.158;2024-02-28T14:40:05;6.80;;;6.10;;
7233;SDS011;3658;47.992;10.158;2024-02-28T14:42:36;8.73;;;6.50;;
7233;SDS011;3658;47.992;10.158;2024-02-28T14:45:03;6.13;;;5.53;;
7233;SDS011;3658;47.992;10.158;2024-02-28T14:47:31;7.17;;;6.10;;
7233;SDS011;3658;47.992;10.158;2024-02-28T14:49:59;8.07;;;5.57;;
7233;SDS011;3658;47.992;10.158;2024-02-28T14:52:25;8.10;;;5.27;;
7233;SDS011;3658;47.992;10.158;2024-02-28T14:54:52;11.33;;;6.47;;
7233;SDS011;3658;47.992;10.158;2024-02-28T14:57:19;7.20;;;6.20;;
7233;SDS011;3658;47.992;10.158;2024-02-28T14:59:47;9.57;;;6.97;;